Time;durP1;ratioP1;P1;durP2;ratioP2;P2;SDS_P1;SDS_P2;PMS_P1;PMS_P2;Temp;Humidity;BMP_temperature;BMP_pressure;BME280_temperature;BME280_humidity;BME280_pressure;Samples;Min_cycle;Max_cycle;Signal;HPM_P1;HPM_P2
2021/06/09 00:01:08;;;;;;;2.30;2.10;;;;;;;17.64;60.94;101340.19;4988759;28;20228;-75
2021/06/09 00:03:34;;;;;;;2.40;2.20;;;;;;;17.63;60.92;101341.16;4988705;28;20201;-75
2021/06/09 00:06:00;;;;;;;3.27;2.37;;;;;;;17.60;60.62;101344.75;5000159;28;20208;-75
2021/06/09 00:08:28;;;;;;;2.80;2.13;;;;;;;17.58;60.40;101342.19;4992054;28;20212;-75
2021/06/09 00:10:55;;;;;;;2.70;2.50;;;;;;;17.57;60.90;101348.41;4988362;28;20221;-75
2021/06/09 00:13:23;;;;;;;2.13;1.93;;;;;;;17.54;61.07;101345.03;4988159;28;20216;-75
2021/06/09 00:15:49;;;;;;;2.67;2.10;;;;;;;17.49;61.15;101345.22;4986538;28;20235;-75
2021/06/09 00:18:15;;;;;;;2.47;2.27;;;;;;;17.46;62.78;101347.16;4989133;28;20197;-75
2021/06/09 00:20:40;;;;;;;2.90;2.20;;;;;;;17.41;61.19;101348.22;4997521;28;20295;-76
2021/06/09 00:23:09;;;;;;;2.43;2.20;;;;;;;17.40;61.89;101346.50;5010171;28;20251;-75
2021/06/09 00:25:37;;;;;;;2.70;2.10;;;;;;;17.35;61.66;101337.06;4992911;28;20259;-75
2021/06/09 00:28:03;;;;;;;3.00;2.20;;;;;;;17.35;61.42;101347.63;5008567;28;20241;-75
2021/06/09 00:30:32;;;;;;;2.40;2.10;;;;;;;17.28;61.76;101341.75;4995098;28;20283;-76
2021/06/09 00:32:59;;;;;;;2.03;1.90;;;;;;;17.26;61.63;101345.38;4989869;28;20297;-75
2021/06/09 00:35:26;;;;;;;3.13;2.27;;;;;;;17.21;62.03;101343.78;4988691;28;20205;-75
2021/06/09 00:37:52;;;;;;;2.37;2.07;;;;;;;17.19;62.10;101350.06;4987937;28;20569;-75
2021/06/09 00:40:18;;;;;;;3.07;2.10;;;;;;;17.14;61.64;101354.66;4991484;28;20220;-75
2021/06/09 00:43:05;;;;;;;3.83;2.00;;;;;;;17.10;61.95;101351.28;4991073;28;20205;-75
2021/06/09 00:45:31;;;;;;;2.50;1.93;;;;;;;17.03;62.03;101353.31;4985093;28;20213;-75
2021/06/09 00:47:57;;;;;;;2.10;1.90;;;;;;;16.99;61.81;101357.00;4988408;28;20605;-75
2021/06/09 00:50:23;;;;;;;2.13;1.83;;;;;;;16.94;61.66;101355.47;4991939;28;20225;-75
2021/06/09 00:52:49;;;;;;;2.53;1.90;;;;;;;16.89;62.00;101357.47;4992350;28;20922;-75
2021/06/09 00:55:16;;;;;;;2.20;2.00;;;;;;;16.83;62.20;101351.53;4992550;28;20240;-76
2021/06/09 00:57:43;;;;;;;1.90;1.80;;;;;;;16.79;62.03;101356.94;4992227;28;20926;-75
2021/06/09 01:00:12;;;;;;;2.37;1.93;;;;;;;16.75;63.35;101350.09;4992507;28;20239;-75
2021/06/09 01:02:39;;;;;;;2.13;1.80;;;;;;;16.67;62.86;101347.75;5000067;28;20323;-75
2021/06/09 01:05:07;;;;;;;2.07;1.87;;;;;;;16.61;62.86;101346.22;4988406;28;20297;-75
2021/06/09 01:07:37;;;;;;;3.17;2.10;;;;;;;16.57;63.51;101354.28;5000443;28;20200;-75
2021/06/09 01:10:31;;;;;;;2.20;2.00;;;;;;;16.53;66.08;101350.91;4991656;28;20625;-75
2021/06/09 01:12:58;;;;;;;2.50;2.30;;;;;;;16.46;64.34;101349.44;4977703;28;20205;-75
2021/06/09 01:15:27;;;;;;;3.80;1.97;;;;;;;16.45;66.87;101351.22;4999518;28;20209;-75
2021/06/09 01:17:53;;;;;;;5.07;1.90;;;;;;;16.38;65.15;101354.19;4991957;28;20229;-75
2021/06/09 01:20:20;;;;;;;3.20;2.10;;;;;;;16.37;66.59;101353.28;4995135;28;20206;-75
2021/06/09 01:22:48;;;;;;;2.80;1.93;;;;;;;16.31;66.05;101348.28;5011134;28;20768;-75
2021/06/09 01:25:14;;;;;;;2.20;1.87;;;;;;;16.25;64.42;101343.25;5002613;28;20212;-75
2021/06/09 01:27:41;;;;;;;2.37;2.03;;;;;;;16.22;64.80;101346.00;4999269;28;20904;-75
2021/06/09 01:30:10;;;;;;;2.20;1.90;;;;;;;16.19;64.70;101349.59;4978529;28;20244;-75
2021/06/09 01:32:37;;;;;;;3.23;1.80;;;;;;;16.15;63.68;101349.78;4989720;28;20194;-75
2021/06/09 01:35:04;;;;;;;2.40;2.20;;;;;;;16.11;63.99;101353.44;4991364;28;20199;-75
2021/06/09 01:37:30;;;;;;;4.67;2.00;;;;;;;16.04;63.69;101348.44;4992012;28;20248;-75
2021/06/09 01:39:59;;;;;;;1.93;1.83;;;;;;;16.02;63.98;101347.63;4999714;28;20263;-75
2021/06/09 01:42:27;;;;;;;2.17;1.97;;;;;;;16.02;66.81;101341.50;4998734;28;20210;-75
2021/06/09 01:44:53;;;;;;;2.80;1.87;;;;;;;15.99;69.02;101339.84;5004433;28;20220;-75
2021/06/09 01:47:19;;;;;;;3.13;1.93;;;;;;;15.93;66.11;101342.69;4991531;28;20199;-75
2021/06/09 01:49:45;;;;;;;3.23;1.93;;;;;;;15.94;69.14;101347.03;4991430;28;20215;-75
2021/06/09 01:52:12;;;;;;;2.07;1.93;;;;;;;15.90;67.33;101348.09;4991313;28;20193;-75
2021/06/09 01:54:38;;;;;;;2.23;1.87;;;;;;;15.82;66.82;101343.09;4982452;28;20571;-75
2021/06/09 01:57:07;;;;;;;2.67;2.07;;;;;;;15.79;66.84;101345.81;4991236;28;20201;-75
2021/06/09 01:59:34;;;;;;;3.00;2.20;;;;;;;15.78;68.46;101338.88;4995465;28;20222;-75
2021/06/09 02:02:01;;;;;;;2.47;2.13;;;;;;;15.71;68.18;101342.59;4996983;28;20589;-75
2021/06/09 02:04:28;;;;;;;2.50;2.20;;;;;;;15.67;68.81;101338.34;4991159;28;20649;-75
2021/06/09 02:06:55;;;;;;;2.60;2.00;;;;;;;15.62;69.16;101342.91;4993648;28;20210;-75
2021/06/09 02:09:22;;;;;;;2.50;2.10;;;;;;;15.59;72.62;101340.41;4994744;28;20213;-75
2021/06/09 02:11:49;;;;;;;2.63;2.30;;;;;;;15.47;72.20;101353.06;5009269;28;20204;-75
2021/06/09 02:14:19;;;;;;;2.30;2.10;;;;;;;15.40;73.82;101348.09;5004038;28;20235;-75
2021/06/09 02:16:47;;;;;;;2.60;2.40;;;;;;;15.29;73.40;101351.94;4991204;28;20292;-75
2021/06/09 02:19:14;;;;;;;2.57;2.37;;;;;;;15.29;73.50;101351.94;4990779;28;20405;-75
2021/06/09 02:21:42;;;;;;;2.53;2.23;;;;;;;15.26;75.20;101345.94;4990298;28;20201;-75
2021/06/09 02:24:10;;;;;;;2.57;2.37;;;;;;;15.14;74.45;101352.44;4990651;28;20633;-75
2021/06/09 02:26:37;;;;;;;4.63;2.50;;;;;;;15.07;76.38;101351.78;4979624;28;20603;-76
2021/06/09 02:29:04;;;;;;;2.80;2.50;;;;;;;15.04;77.78;101344.03;4996876;28;20289;-76
2021/06/09 02:31:32;;;;;;;2.77;2.57;;;;;;;14.89;77.91;101339.28;4984093;28;20223;-76
2021/06/09 02:33:58;;;;;;;2.50;2.30;;;;;;;14.85;77.04;101346.41;4989430;28;20212;-76
2021/06/09 02:36:24;;;;;;;2.30;2.10;;;;;;;14.77;77.16;101346.66;4987837;28;20255;-76
2021/06/09 02:38:50;;;;;;;2.90;2.50;;;;;;;14.77;78.51;101343.16;4989458;28;20271;-76
2021/06/09 02:41:18;;;;;;;2.67;2.33;;;;;;;14.71;78.26;101343.38;4993378;28;20263;-76
2021/06/09 02:43:45;;;;;;;3.07;2.30;;;;;;;14.69;79.65;101342.56;4976517;28;20205;-75
2021/06/09 02:46:16;;;;;;;4.07;2.80;;;;;;;14.51;80.05;101339.56;4988395;28;20254;-75
2021/06/09 02:48:47;;;;;;;2.70;2.50;;;;;;;14.47;80.39;101347.56;4989371;28;20211;-76
2021/06/09 02:51:16;;;;;;;2.70;2.40;;;;;;;14.36;80.04;101351.38;4978410;28;20748;-75
2021/06/09 02:53:47;;;;;;;4.53;2.77;;;;;;;14.31;81.91;101345.41;4979152;28;20861;-75
2021/06/09 02:56:23;;;;;;;3.03;2.20;;;;;;;14.32;81.21;101344.53;4993297;28;20200;-76
2021/06/09 02:58:57;;;;;;;3.10;2.40;;;;;;;14.26;82.96;101349.94;4988529;28;20639;-76
2021/06/09 03:01:29;;;;;;;3.40;2.90;;;;;;;14.15;82.26;101347.63;4997487;28;20256;-76
2021/06/09 03:04:05;;;;;;;3.20;2.90;;;;;;;14.15;82.72;101345.00;4969039;28;20205;-76
2021/06/09 03:06:39;;;;;;;3.23;2.40;;;;;;;14.09;82.79;101346.94;4985297;28;20693;-76
2021/06/09 03:09:07;;;;;;;5.43;2.83;;;;;;;13.98;84.09;101342.91;4993211;28;20604;-76
2021/06/09 03:11:45;;;;;;;3.97;3.10;;;;;;;13.98;84.76;101339.41;4996363;28;20199;-76
2021/06/09 03:15:09;;;;;;;2.90;2.60;;;;;;;13.89;85.25;101337.91;4975190;28;20689;-75
2021/06/09 03:17:16;;;;;;;3.30;2.80;;;;;;;13.93;85.06;101336.94;4993014;28;20203;-76
2021/06/09 03:19:57;;;;;;;4.30;3.00;;;;;;;13.85;85.90;101343.31;4991490;28;20627;-75
2021/06/09 03:22:30;;;;;;;3.27;2.80;;;;;;;13.74;85.84;101343.59;4993861;28;20226;-76
2021/06/09 03:24:57;;;;;;;4.10;3.30;;;;;;;13.91;87.10;101335.25;4995996;28;20274;-76
2021/06/09 03:27:29;;;;;;;3.33;3.00;;;;;;;13.83;86.55;101338.94;4982516;28;20196;-76
2021/06/09 03:29:59;;;;;;;6.53;3.60;;;;;;;13.78;85.57;101350.47;4979413;28;20223;-75
2021/06/09 03:32:28;;;;;;;3.83;2.90;;;;;;;13.82;86.63;101344.22;4974648;28;20225;-76
2021/06/09 03:35:00;;;;;;;4.07;3.27;;;;;;;13.78;85.93;101346.06;4987857;28;20193;-75
2021/06/09 03:37:29;;;;;;;4.03;3.30;;;;;;;13.81;86.39;101345.16;4988422;28;20245;-76
2021/06/09 03:39:58;;;;;;;4.73;3.23;;;;;;;13.80;86.31;101344.25;4986782;28;20218;-75
2021/06/09 03:42:29;;;;;;;3.57;3.27;;;;;;;13.77;86.37;101348.72;4988592;28;20205;-76
2021/06/09 03:44:58;;;;;;;3.90;3.33;;;;;;;13.79;87.06;101352.16;4987428;28;20244;-75
2021/06/09 03:47:25;;;;;;;4.90;3.60;;;;;;;13.79;86.40;101360.03;4984086;28;20199;-75
2021/06/09 03:49:51;;;;;;;3.50;3.13;;;;;;;13.84;87.04;101366.00;4987790;28;20245;-76
2021/06/09 03:52:19;;;;;;;3.70;3.20;;;;;;;13.88;86.96;101358.91;4998642;28;20692;-76
2021/06/09 03:54:49;;;;;;;3.57;3.10;;;;;;;13.88;85.86;101365.03;4996082;28;20529;-76
2021/06/09 03:57:15;;;;;;;3.97;3.40;;;;;;;13.93;86.38;101357.91;4991050;28;20693;-76
2021/06/09 03:59:45;;;;;;;3.97;3.40;;;;;;;13.93;85.58;101367.50;4984681;28;20221;-76
2021/06/09 04:02:11;;;;;;;4.27;3.30;;;;;;;13.95;86.66;101365.72;4989251;28;20624;-76
2021/06/09 04:04:39;;;;;;;4.37;3.63;;;;;;;13.99;84.81;101367.34;4988182;28;20205;-76
2021/06/09 04:07:07;;;;;;;6.47;3.50;;;;;;;14.08;85.42;101371.47;4992926;28;20197;-76
2021/06/09 04:09:36;;;;;;;5.60;3.47;;;;;;;14.15;86.17;101371.25;4992511;28;20202;-76
2021/06/09 04:12:05;;;;;;;4.03;3.30;;;;;;;14.31;85.77;101366.41;4988644;28;20195;-75
2021/06/09 04:14:34;;;;;;;3.50;3.17;;;;;;;14.48;84.92;101367.69;4995950;28;20212;-76
2021/06/09 04:17:02;;;;;;;5.07;3.60;;;;;;;14.60;83.78;101369.94;4984953;28;20206;-76
2021/06/09 04:19:29;;;;;;;4.13;3.33;;;;;;;14.79;84.21;101366.72;4969214;28;20241;-76
2021/06/09 04:21:55;;;;;;;5.87;3.30;;;;;;;14.88;82.51;101375.19;4977318;28;20220;-76
2021/06/09 04:24:21;;;;;;;4.03;3.40;;;;;;;15.04;84.08;101372.03;4992576;28;20262;-76
2021/06/09 04:26:52;;;;;;;3.07;2.87;;;;;;;15.11;82.13;101366.56;4990830;28;20202;-76
2021/06/09 04:29:20;;;;;;;3.90;2.93;;;;;;;15.18;80.41;101382.09;4999668;28;20232;-76
2021/06/09 04:31:47;;;;;;;3.27;2.97;;;;;;;15.24;78.68;101387.16;4987868;28;20652;-76
2021/06/09 04:34:13;;;;;;;4.30;3.30;;;;;;;15.37;80.87;101379.72;4990462;28;20228;-76
2021/06/09 04:36:40;;;;;;;3.87;2.90;;;;;;;15.46;79.09;101379.38;4986103;28;21017;-76
2021/06/09 04:39:07;;;;;;;3.27;2.97;;;;;;;15.65;80.67;101374.34;4960844;28;21337;-76
2021/06/09 04:41:33;;;;;;;4.23;3.10;;;;;;;15.77;78.43;101376.56;5002088;28;20197;-76
2021/06/09 04:44:00;;;;;;;2.93;2.63;;;;;;;15.84;76.58;101378.06;5002889;28;20265;-76
2021/06/09 04:46:26;;;;;;;3.57;2.90;;;;;;;15.97;77.56;101373.25;5001046;28;20225;-76
2021/06/09 04:48:57;;;;;;;3.30;3.00;;;;;;;16.05;76.26;101376.41;5005410;28;20759;-76
2021/06/09 04:51:28;;;;;;;4.03;3.00;;;;;;;16.12;74.99;101374.44;5003159;28;20569;-76
2021/06/09 04:53:54;;;;;;;2.83;2.60;;;;;;;16.31;76.27;101382.50;5010146;28;20220;-76
2021/06/09 04:56:20;;;;;;;3.13;2.87;;;;;;;16.39;73.10;101383.06;5006035;28;20200;-76
2021/06/09 04:58:46;;;;;;;3.30;2.60;;;;;;;16.54;73.98;101378.97;4984398;28;20200;-76
2021/06/09 05:01:13;;;;;;;2.63;2.43;;;;;;;16.72;74.94;101380.00;5004973;28;20301;-76
2021/06/09 05:03:39;;;;;;;4.33;2.80;;;;;;;16.81;71.33;101386.69;5004925;28;20465;-76
2021/06/09 05:06:05;;;;;;;3.03;2.70;;;;;;;16.91;71.05;101385.44;4997981;28;20209;-76
2021/06/09 05:08:31;;;;;;;2.70;2.50;;;;;;;16.96;69.80;101382.63;4986577;28;20236;-76
2021/06/09 05:11:00;;;;;;;3.93;2.30;;;;;;;17.09;67.97;101394.34;5008072;28;20220;-76
2021/06/09 05:13:30;;;;;;;4.83;2.40;;;;;;;17.21;66.19;101393.00;5002856;28;20198;-76
2021/06/09 05:16:01;;;;;;;2.80;2.60;;;;;;;17.30;66.78;101387.31;4977877;28;20224;-76
2021/06/09 05:18:36;;;;;;;2.70;2.30;;;;;;;17.42;64.85;101389.44;5002890;28;20208;-76
2021/06/09 05:21:03;;;;;;;2.60;2.40;;;;;;;17.53;66.66;101385.50;5005322;28;20333;-76
2021/06/09 05:23:33;;;;;;;2.83;2.13;;;;;;;17.60;65.28;101393.06;5000461;28;20208;-76
2021/06/09 05:26:01;;;;;;;5.37;2.27;;;;;;;17.67;66.56;101390.19;5006649;28;20224;-76
2021/06/09 05:28:29;;;;;;;3.43;2.13;;;;;;;17.78;67.35;101390.53;5002092;28;20209;-76
2021/06/09 05:30:57;;;;;;;2.23;2.00;;;;;;;17.85;63.61;101399.91;4997593;28;20304;-76
2021/06/09 05:33:26;;;;;;;2.13;1.93;;;;;;;18.02;66.40;101388.63;4995427;28;20208;-76
2021/06/09 05:35:56;;;;;;;1.60;1.50;;;;;;;18.10;59.27;101397.06;5005722;28;20237;-76
2021/06/09 05:38:24;;;;;;;1.83;1.60;;;;;;;18.21;59.43;101393.09;5001699;28;20200;-76
2021/06/09 05:40:52;;;;;;;2.73;1.60;;;;;;;18.32;59.42;101394.28;5002788;28;20395;-76
2021/06/09 05:43:20;;;;;;;1.80;1.60;;;;;;;18.37;58.57;101387.94;4996045;28;20198;-76
2021/06/09 05:45:48;;;;;;;1.63;1.53;;;;;;;18.50;58.61;101391.72;5009812;28;20220;-76
2021/06/09 05:48:14;;;;;;;1.83;1.40;;;;;;;18.63;56.48;101400.78;5008808;28;20197;-76
2021/06/09 05:50:40;;;;;;;1.90;1.70;;;;;;;18.71;55.48;101405.69;5012426;28;20216;-76
2021/06/09 05:53:07;;;;;;;1.40;1.30;;;;;;;18.85;54.26;101408.53;5004363;28;20268;-76
2021/06/09 05:55:35;;;;;;;2.20;1.33;;;;;;;18.91;55.37;101396.84;5009857;28;20250;-76
2021/06/09 05:58:03;;;;;;;2.07;1.40;;;;;;;18.99;53.05;101407.88;5008008;28;20204;-76
2021/06/09 06:00:31;;;;;;;2.70;1.17;;;;;;;19.00;53.99;101403.47;5000884;28;20811;-76
2021/06/09 06:02:57;;;;;;;1.30;1.20;;;;;;;19.09;53.46;101410.94;5010367;28;20335;-76
2021/06/09 06:05:24;;;;;;;1.50;1.30;;;;;;;19.14;53.33;101406.28;5008541;28;20228;-76
2021/06/09 06:07:51;;;;;;;3.53;1.60;;;;;;;19.24;53.08;101414.59;5007682;28;20204;-76
2021/06/09 06:10:20;;;;;;;2.33;1.50;;;;;;;19.25;52.87;101416.31;5005013;28;20207;-76
2021/06/09 06:12:48;;;;;;;1.70;1.50;;;;;;;19.12;53.04;101421.34;5010244;28;20196;-76
2021/06/09 06:15:14;;;;;;;1.83;1.43;;;;;;;19.15;52.22;101420.34;5006542;28;20193;-76
2021/06/09 06:17:42;;;;;;;1.43;1.33;;;;;;;19.19;52.23;101416.59;5006957;28;20228;-76
2021/06/09 06:20:13;;;;;;;2.70;1.60;;;;;;;19.32;54.25;101423.00;4996815;28;20209;-76
2021/06/09 06:22:40;;;;;;;2.17;1.50;;;;;;;19.38;52.39;101411.25;5005927;28;20241;-76
2021/06/09 06:25:07;;;;;;;1.80;1.40;;;;;;;19.49;53.24;101411.56;5003289;28;20756;-76
2021/06/09 06:27:35;;;;;;;1.90;1.57;;;;;;;19.61;52.92;101412.72;5000689;28;20561;-76
2021/06/09 06:30:03;;;;;;;3.67;1.50;;;;;;;19.61;52.70;101410.06;5010630;28;20243;-76
2021/06/09 06:32:29;;;;;;;2.17;1.67;;;;;;;19.76;53.27;101409.31;5004855;28;20201;-76
2021/06/09 06:34:57;;;;;;;1.80;1.43;;;;;;;19.78;51.08;101407.44;4994919;28;20235;-76
2021/06/09 06:37:24;;;;;;;3.33;1.63;;;;;;;19.78;51.04;101419.81;4987314;28;20208;-76
2021/06/09 06:39:51;;;;;;;2.27;1.40;;;;;;;19.88;52.06;101417.56;4997235;28;20231;-76
2021/06/09 06:42:18;;;;;;;2.07;1.50;;;;;;;19.91;51.67;101414.72;5006308;28;20227;-76
2021/06/09 06:44:46;;;;;;;3.03;1.60;;;;;;;19.81;51.38;101417.88;5004414;28;20688;-76
2021/06/09 06:47:14;;;;;;;2.60;1.37;;;;;;;19.95;51.94;101418.94;4997564;28;20242;-76
2021/06/09 06:49:43;;;;;;;2.60;1.60;;;;;;;20.02;51.80;101409.75;5003755;28;20220;-76
2021/06/09 06:52:09;;;;;;;4.83;1.70;;;;;;;20.14;51.32;101413.50;5004091;28;20575;-76
2021/06/09 06:54:36;;;;;;;1.30;1.20;;;;;;;20.29;48.99;101415.31;5009754;28;20622;-76
2021/06/09 06:57:03;;;;;;;2.57;1.47;;;;;;;20.41;49.14;101412.00;4995332;28;20212;-76
2021/06/09 06:59:29;;;;;;;1.77;1.50;;;;;;;20.45;49.02;101417.97;5001048;28;20714;-76
2021/06/09 07:01:58;;;;;;;3.00;1.70;;;;;;;20.52;49.36;101418.50;5006342;28;20274;-76
2021/06/09 07:04:24;;;;;;;1.97;1.63;;;;;;;20.61;49.72;101418.91;5006722;28;20259;-76
2021/06/09 07:06:51;;;;;;;1.60;1.37;;;;;;;20.68;52.33;101406.13;4998385;28;20626;-76
2021/06/09 07:09:19;;;;;;;2.30;1.53;;;;;;;20.80;50.88;101407.25;5009668;28;20219;-76
2021/06/09 07:11:47;;;;;;;2.60;1.60;;;;;;;20.91;50.98;101403.97;5005373;28;20578;-76
2021/06/09 07:14:14;;;;;;;1.57;1.37;;;;;;;20.95;50.95;101402.88;5003533;28;20262;-76
2021/06/09 07:16:44;;;;;;;1.40;1.30;;;;;;;20.76;48.71;101409.22;4998742;28;20205;-76
2021/06/09 07:19:12;;;;;;;2.33;1.50;;;;;;;20.89;47.89;101417.31;5013714;28;20233;-76
2021/06/09 07:21:39;;;;;;;3.03;1.33;;;;;;;21.03;49.53;101408.56;5006891;28;21111;-76
2021/06/09 07:24:06;;;;;;;1.67;1.53;;;;;;;21.21;48.66;101411.09;5005098;28;20200;-76
2021/06/09 07:26:36;;;;;;;3.33;1.60;;;;;;;21.37;52.42;101407.47;5008736;28;20220;-76
2021/06/09 07:29:02;;;;;;;2.67;1.30;;;;;;;21.42;48.44;101420.44;5004652;28;20285;-76
2021/06/09 07:31:32;;;;;;;2.43;1.40;;;;;;;21.45;45.49;101425.56;4999578;28;20204;-76
2021/06/09 07:33:58;;;;;;;2.30;1.20;;;;;;;21.35;46.05;101422.63;4988923;28;20189;-76
2021/06/09 07:36:31;;;;;;;1.80;1.30;;;;;;;21.32;44.97;101417.50;5002058;28;20196;-76
2021/06/09 07:39:04;;;;;;;3.37;1.40;;;;;;;21.50;44.29;101420.03;5007562;28;20201;-76
2021/06/09 07:41:32;;;;;;;2.00;1.40;;;;;;;21.49;45.44;101426.25;5005610;28;20213;-76
2021/06/09 07:44:03;;;;;;;2.27;1.60;;;;;;;21.67;46.37;101416.34;5001858;28;20197;-76
2021/06/09 07:46:31;;;;;;;1.77;1.30;;;;;;;21.70;46.85;101417.00;5003247;28;20291;-76
2021/06/09 07:48:59;;;;;;;1.40;1.20;;;;;;;21.73;45.31;101422.13;5017045;28;20204;-76
2021/06/09 07:51:27;;;;;;;1.97;1.17;;;;;;;21.59;44.65;101414.16;5004070;28;20562;-76
2021/06/09 07:53:57;;;;;;;1.50;1.40;;;;;;;21.45;45.80;101414.09;4996589;28;20211;-76
2021/06/09 07:56:29;;;;;;;1.60;1.33;;;;;;;21.30;46.61;101416.72;5002953;28;20197;-76
2021/06/09 07:58:56;;;;;;;1.50;1.40;;;;;;;21.49;45.34;101416.50;5002149;28;20256;-76
2021/06/09 08:01:22;;;;;;;2.20;1.13;;;;;;;21.44;43.96;101417.69;5006017;28;20207;-76
2021/06/09 08:03:48;;;;;;;1.20;1.10;;;;;;;21.59;44.42;101415.97;5002413;28;20855;-76
2021/06/09 08:06:15;;;;;;;1.30;1.20;;;;;;;21.72;44.73;101420.44;5001471;28;20224;-76
2021/06/09 08:08:44;;;;;;;1.63;1.37;;;;;;;21.83;45.71;101411.84;5004960;28;20712;-76
2021/06/09 08:11:10;;;;;;;2.93;1.60;;;;;;;21.79;44.58;101417.41;4998628;28;20232;-76
2021/06/09 08:13:37;;;;;;;2.23;1.20;;;;;;;21.78;44.25;101429.84;5010683;28;20689;-76
2021/06/09 08:16:10;;;;;;;1.97;1.77;;;;;;;21.65;45.51;101418.25;5001718;28;20247;-76
2021/06/09 08:18:36;;;;;;;2.07;1.40;;;;;;;21.75;45.85;101416.75;4996070;28;20699;-76
2021/06/09 08:21:06;;;;;;;2.63;1.60;;;;;;;21.84;46.23;101420.63;5006280;28;20323;-76
2021/06/09 08:23:32;;;;;;;1.77;1.67;;;;;;;21.98;46.04;101423.28;5004104;28;20196;-76
2021/06/09 08:26:00;;;;;;;1.63;1.47;;;;;;;21.99;46.32;101417.06;5006282;28;20213;-76
2021/06/09 08:28:28;;;;;;;2.50;1.53;;;;;;;22.13;45.53;101414.38;5005101;28;20215;-76
2021/06/09 08:30:54;;;;;;;1.53;1.43;;;;;;;22.16;44.95;101420.44;5007760;28;20619;-76
2021/06/09 08:33:20;;;;;;;1.97;1.50;;;;;;;22.12;45.42;101425.94;5006588;28;20212;-76
2021/06/09 08:35:46;;;;;;;1.33;1.23;;;;;;;22.18;43.51;101424.72;5001411;28;20207;-76
2021/06/09 08:38:12;;;;;;;1.53;1.20;;;;;;;22.24;43.79;101421.69;5001763;28;20701;-76
2021/06/09 08:40:38;;;;;;;2.73;1.40;;;;;;;22.39;46.84;101411.06;5000356;28;20240;-76
2021/06/09 08:43:07;;;;;;;1.93;1.40;;;;;;;22.65;44.14;101417.38;5002200;28;20204;-76
2021/06/09 08:45:33;;;;;;;1.50;1.40;;;;;;;22.60;44.08;101427.44;4979941;28;20205;-76
2021/06/09 08:48:00;;;;;;;1.60;1.23;;;;;;;22.52;43.26;101419.13;5004258;28;20225;-76
2021/06/09 08:50:26;;;;;;;2.43;1.20;;;;;;;22.73;42.96;101420.38;5006167;28;20224;-76
2021/06/09 08:52:53;;;;;;;1.40;1.30;;;;;;;22.76;44.43;101422.84;5000441;28;20201;-76
2021/06/09 08:55:21;;;;;;;1.40;1.30;;;;;;;22.71;42.75;101424.09;5008842;28;20189;-76
2021/06/09 08:57:47;;;;;;;1.43;1.23;;;;;;;22.73;42.52;101425.72;5000552;28;20683;-76
2021/06/09 09:00:17;;;;;;;1.33;1.23;;;;;;;22.84;42.68;101422.34;5003560;28;20216;-76
2021/06/09 09:02:43;;;;;;;2.57;1.70;;;;;;;22.93;42.80;101418.22;4985592;28;20203;-76
2021/06/09 09:05:11;;;;;;;1.60;1.50;;;;;;;22.91;42.02;101425.47;4993455;28;20200;-76
2021/06/09 09:07:37;;;;;;;1.40;1.30;;;;;;;23.00;42.50;101414.22;4998051;28;20224;-76
2021/06/09 09:10:06;;;;;;;1.40;1.30;;;;;;;23.15;43.43;101418.56;4998160;28;20224;-76
2021/06/09 09:12:34;;;;;;;1.30;1.20;;;;;;;23.17;43.57;101423.78;5007683;28;20202;-76
2021/06/09 09:15:00;;;;;;;1.30;1.20;;;;;;;23.21;41.74;101420.78;5005426;28;20572;-76
2021/06/09 09:17:28;;;;;;;1.43;1.30;;;;;;;23.27;41.13;101419.53;4981656;28;20224;-76
2021/06/09 09:20:05;;;;;;;1.30;1.20;;;;;;;23.38;41.58;101424.13;4996797;28;20759;-76
2021/06/09 09:22:34;;;;;;;1.90;1.47;;;;;;;23.37;40.66;101430.41;5002992;28;20224;-76
2021/06/09 09:25:09;;;;;;;1.40;1.30;;;;;;;23.35;45.12;101411.88;5004891;28;20218;-76
2021/06/09 09:27:35;;;;;;;2.40;1.50;;;;;;;23.39;41.13;101431.16;5003154;28;20202;-76
2021/06/09 09:30:05;;;;;;;1.70;1.37;;;;;;;23.56;40.64;101430.00;4971083;28;20593;-76
2021/06/09 09:32:33;;;;;;;1.43;1.20;;;;;;;23.57;41.10;101440.56;5005040;28;20204;-76
2021/06/09 09:35:07;;;;;;;1.30;1.20;;;;;;;23.47;40.77;101433.31;5002984;28;20304;-76
2021/06/09 09:37:35;;;;;;;1.00;1.00;;;;;;;23.45;40.67;101441.38;5000857;28;20296;-76
2021/06/09 09:40:10;;;;;;;1.60;1.50;;;;;;;23.46;40.68;101431.59;5008011;28;20599;-76
2021/06/09 09:42:36;;;;;;;1.40;1.30;;;;;;;23.74;39.75;101436.72;4994783;28;20257;-76
2021/06/09 09:45:19;;;;;;;1.70;1.20;;;;;;;23.84;40.41;101426.34;5008721;28;20207;-76
2021/06/09 09:48:06;;;;;;;1.20;1.10;;;;;;;23.58;40.34;101431.59;4997384;28;20572;-76
2021/06/09 09:50:34;;;;;;;1.50;1.40;;;;;;;23.62;40.50;101430.44;5006536;28;20220;-76
2021/06/09 09:53:17;;;;;;;1.30;1.20;;;;;;;23.99;41.53;101421.72;5008610;28;20240;-76
2021/06/09 09:56:05;;;;;;;2.40;1.30;;;;;;;24.10;40.16;101416.50;5006067;28;20203;-76
2021/06/09 09:58:33;;;;;;;1.50;1.40;;;;;;;24.19;40.83;101413.19;5004900;28;20220;-76
2021/06/09 10:01:15;;;;;;;2.58;1.10;;;;;;;24.46;40.79;101414.81;5004128;28;20557;-76
2021/06/09 10:03:44;;;;;;;1.30;1.20;;;;;;;24.42;38.88;101417.84;4977579;28;20283;-76
2021/06/09 10:06:18;;;;;;;1.48;1.27;;;;;;;24.63;39.44;101418.13;4997745;28;20208;-77
2021/06/09 10:08:44;;;;;;;1.38;1.27;;;;;;;24.51;38.77;101414.50;5002592;28;20739;-76
2021/06/09 10:11:10;;;;;;;1.30;1.20;;;;;;;24.49;38.91;101411.09;5002592;28;20232;-76
2021/06/09 10:13:37;;;;;;;1.30;1.20;;;;;;;24.64;38.93;101407.31;5005131;28;20200;-76
2021/06/09 10:16:02;;;;;;;1.20;1.10;;;;;;;24.85;38.95;101406.72;5007347;28;20640;-76
2021/06/09 10:18:28;;;;;;;1.90;1.40;;;;;;;24.67;38.60;101408.94;5006313;28;20291;-76
2021/06/09 10:20:56;;;;;;;1.30;1.20;;;;;;;24.63;37.73;101405.63;5005540;28;20220;-76
2021/06/09 10:23:32;;;;;;;1.25;1.15;;;;;;;24.79;40.12;101399.19;5003670;28;20197;-76
2021/06/09 10:26:06;;;;;;;1.52;1.42;;;;;;;24.67;40.13;101400.94;5000696;28;20269;-75
2021/06/09 10:28:55;;;;;;;1.90;1.15;;;;;;;24.74;42.69;101378.19;5003331;28;20191;-76
2021/06/09 10:31:22;;;;;;;1.30;1.10;;;;;;;25.02;37.77;101387.63;5011095;28;20241;-76
2021/06/09 10:33:49;;;;;;;1.13;1.10;;;;;;;24.99;37.51;101387.84;5007682;28;20212;-76
2021/06/09 10:36:17;;;;;;;2.20;1.30;;;;;;;25.18;38.97;101382.00;5006999;28;20350;-76
2021/06/09 10:38:45;;;;;;;1.30;1.20;;;;;;;25.02;37.02;101389.47;4997047;28;20201;-76
2021/06/09 10:41:12;;;;;;;1.23;1.13;;;;;;;25.05;38.05;101381.25;4997983;28;20225;-77
2021/06/09 10:43:39;;;;;;;1.23;1.10;;;;;;;25.21;37.85;101387.09;5002386;28;20200;-76
2021/06/09 10:46:06;;;;;;;1.20;1.10;;;;;;;25.13;36.42;101389.50;5011606;28;20689;-76
2021/06/09 10:48:35;;;;;;;1.45;1.20;;;;;;;25.15;37.82;101376.88;5002720;28;20257;-76
2021/06/09 10:51:01;;;;;;;1.15;1.05;;;;;;;25.34;37.09;101376.34;5004337;28;20315;-76
2021/06/09 10:53:29;;;;;;;1.00;1.00;;;;;;;25.39;37.02;101374.19;4998188;28;20192;-76
2021/06/09 10:55:55;;;;;;;1.20;1.10;;;;;;;25.55;37.31;101375.69;5002960;28;20738;-76
2021/06/09 10:58:24;;;;;;;1.30;1.10;;;;;;;25.37;35.81;101383.28;5010120;28;20200;-76
2021/06/09 11:00:54;;;;;;;1.30;1.20;;;;;;;25.12;39.27;101363.78;5011576;28;20233;-76
2021/06/09 11:03:20;;;;;;;1.27;1.17;;;;;;;25.57;37.32;101365.72;4995754;28;20212;-76
2021/06/09 11:05:46;;;;;;;1.30;1.20;;;;;;;25.66;36.86;101363.19;5000274;28;20231;-76
2021/06/09 11:08:16;;;;;;;1.10;1.00;;;;;;;25.63;35.38;101363.44;5002265;28;20381;-76
2021/06/09 11:10:45;;;;;;;1.13;1.10;;;;;;;25.57;35.58;101361.22;5000731;28;20271;-76
2021/06/09 11:13:26;;;;;;;0.95;0.90;;;;;;;25.73;35.12;101360.88;5016478;28;20234;-76
2021/06/09 11:16:04;;;;;;;0.93;0.90;;;;;;;25.64;33.85;101359.78;4995115;28;20205;-76
2021/06/09 11:18:34;;;;;;;0.85;0.85;;;;;;;25.41;33.32;101352.72;5008432;28;20891;-76
2021/06/09 11:45:25;;;;;;;1.23;1.08;;;;;;;25.89;38.09;101325.78;5176429;27;20947;-70
2021/06/09 11:48:15;;;;;;;1.15;0.98;;;;;;;26.05;37.19;101320.97;5170225;27;20219;-70
2021/06/09 11:51:26;;;;;;;1.23;1.13;;;;;;;26.16;32.98;101333.44;5142701;27;20195;-70
2021/06/09 11:54:17;;;;;;;1.83;1.20;;;;;;;26.17;31.64;101332.44;5154808;27;20287;-70
2021/06/09 11:57:12;;;;;;;2.00;1.10;;;;;;;26.24;35.26;101323.00;5159937;27;20211;-70